KCVG/CVG METAR and TAF weather

Enter ICAO airport designator
Station Type Date Time Source
KCVG METAR 2020/07/06 22:52 UTC NOAA

KCVG 062252Z 26005KT 2SM +TSRA BR FEW030 BKN045CB OVC080 22/20 A3005 RMK AO2 PK WND 14033/2200 WSHFT 2221 SFC VIS 3 LTG DSNT ALQDS RAB17 SLP166 FRQ LTGICCG SW-W NW-N TS SW-W NW-N MOV NW P0018 T02170200


Station Type Date Time Source
KCVG Decoded METAR 2020/07/06 22:52 UTC NOAA

CINCINNATI/NORTHERN KY INTERNATIONAL , KY, United States (KCVG) 39-03N 084-40W 269M
Jul 06, 2020 - 06:52 PM EDT / 2020.07.06 2252 UTC
Wind: from the W (260 degrees) at 6 MPH (5 KT):0
Visibility: 2 mile(s):0
Sky conditions: overcast
Weather: heavy rain with thunder; mist; Cumulonimbus clouds, lightning observed
Precipitation last hour: 0.18 inches
Temperature: 71.1 F (21.7 C)
Dew Point: 68.0 F (20.0 C)
Relative Humidity: 90%
Pressure (altimeter): 30.05 in. Hg (1017 hPa)
ob: KCVG 062252Z 26005KT 2SM +TSRA BR FEW030 BKN045CB OVC080 22/20 A3005 RMK AO2 PK WND 14033/2200 WSHFT 2221 SFC VIS 3 LTG DSNT ALQDS RAB17 SLP166 FRQ LTGICCG SW-W NW-N TS SW-W NW-N MOV NW P0018 T02170200
cycle: 23

Station Type Date Time Source
KCVG TAF 2020/07/06 22:16 UTC NOAA

TAF
AMD KCVG 062213Z 0622/0724 VRB15G25KT 1SM TSRA OVC050CB
FM062300 26007KT P6SM VCTS SCT050CB SCT150
FM070000 VRB02KT P6SM SCT120
TEMPO 0710/0712 5SM BR
FM071600 24004KT P6SM SCT050
FM071800 25004KT P6SM VCTS BKN050CB

Example: see airport list